Time;durP1;ratioP1;P1;durP2;ratioP2;P2;SDS_P1;SDS_P2;PMS_P1;PMS_P2;Temp;Humidity;BMP_temperature;BMP_pressure;BME280_temperature;BME280_humidity;BME280_pressure;Samples;Min_cycle;Max_cycle;Signal;HPM_P1;HPM_P2
2022/08/07 00:02:15;;;;;;;1.98;1.77;;;19.30;99.90;;;;;;4954636;28;20205;-92
2022/08/07 00:05:04;;;;;;;2.53;2.22;;;19.30;99.90;;;;;;4954613;28;20220;-92
2022/08/07 00:07:33;;;;;;;3.03;2.80;;;19.30;99.90;;;;;;4954131;28;20259;-91
2022/08/07 00:10:08;;;;;;;1.92;1.83;;;19.30;99.90;;;;;;4953932;28;20274;-90
2022/08/07 00:12:57;;;;;;;2.20;2.05;;;19.30;99.90;;;;;;4954253;28;20266;-91
2022/08/07 00:15:31;;;;;;;10.52;2.25;;;19.20;99.90;;;;;;4954492;29;20216;-92
2022/08/07 00:18:07;;;;;;;1.58;1.48;;;19.20;99.90;;;;;;4953931;28;20213;-91
2022/08/07 00:20:48;;;;;;;2.13;1.80;;;19.20;99.90;;;;;;4954060;28;20240;-92
2022/08/07 00:23:17;;;;;;;1.73;1.63;;;19.20;99.90;;;;;;4953559;28;20201;-91
2022/08/07 00:25:48;;;;;;;2.30;2.10;;;19.20;99.90;;;;;;4953901;28;20326;-91
2022/08/07 00:28:28;;;;;;;1.60;1.50;;;19.10;99.90;;;;;;4954028;28;20312;-91
2022/08/07 00:31:04;;;;;;;4.95;1.70;;;19.10;99.90;;;;;;4954137;28;20229;-91
2022/08/07 00:33:40;;;;;;;1.85;1.48;;;19.10;99.90;;;;;;4953997;29;20292;-91
2022/08/07 00:36:09;;;;;;;2.05;1.88;;;19.20;99.90;;;;;;4953713;28;20260;-92
2022/08/07 00:38:39;;;;;;;1.85;1.75;;;19.10;99.90;;;;;;4953618;28;20224;-91
2022/08/07 00:41:08;;;;;;;1.48;1.38;;;19.10;99.90;;;;;;4953605;28;20233;-91
2022/08/07 00:43:42;;;;;;;1.98;1.88;;;19.10;99.90;;;;;;4954093;28;20211;-91
2022/08/07 00:46:31;;;;;;;2.03;1.83;;;19.10;99.90;;;;;;4954220;28;20288;-92
2022/08/07 00:49:01;;;;;;;1.60;1.50;;;19.10;99.90;;;;;;4953769;28;20225;-92
2022/08/07 00:51:31;;;;;;;1.98;1.88;;;19.00;99.90;;;;;;4953438;28;20241;-91
2022/08/07 00:54:19;;;;;;;1.60;1.50;;;19.00;99.90;;;;;;4953465;28;20216;-91
2022/08/07 00:56:49;;;;;;;2.67;2.13;;;19.00;99.90;;;;;;4953740;28;20201;-91
2022/08/07 00:59:18;;;;;;;2.20;1.80;;;19.10;99.90;;;;;;4953235;28;20251;-91
2022/08/07 01:02:04;;;;;;;1.98;1.77;;;19.10;99.90;;;;;;4953592;28;20232;-92
2022/08/07 01:04:53;;;;;;;1.90;1.80;;;19.00;99.90;;;;;;4952992;28;20205;-91
2022/08/07 01:07:26;;;;;;;1.65;1.55;;;19.00;99.90;;;;;;4953196;28;20221;-92
2022/08/07 01:09:57;;;;;;;1.60;1.50;;;19.00;99.90;;;;;;4952848;28;20248;-91
2022/08/07 01:12:38;;;;;;;1.83;1.73;;;18.90;99.90;;;;;;4953362;28;20208;-91
2022/08/07 01:15:21;;;;;;;2.65;1.65;;;18.90;99.90;;;;;;4953301;28;20288;-92
2022/08/07 01:18:05;;;;;;;2.78;1.90;;;18.90;99.90;;;;;;4953324;28;20213;-90
2022/08/07 01:20:44;;;;;;;1.35;1.35;;;18.90;99.90;;;;;;4953044;28;20275;-90
2022/08/07 01:23:28;;;;;;;1.77;1.67;;;18.80;99.90;;;;;;4953541;28;20301;-92
2022/08/07 01:26:08;;;;;;;3.28;2.00;;;18.80;99.90;;;;;;4954369;28;20216;-91
2022/08/07 01:28:40;;;;;;;1.60;1.50;;;18.80;99.90;;;;;;4959883;28;20274;-91
2022/08/07 01:31:14;;;;;;;1.85;1.75;;;18.70;99.90;;;;;;4959494;28;20233;-92
2022/08/07 01:33:47;;;;;;;2.03;1.92;;;18.70;99.90;;;;;;4959740;28;20216;-93
2022/08/07 01:36:24;;;;;;;1.77;1.67;;;18.70;99.90;;;;;;4958940;28;20212;-91
2022/08/07 01:39:05;;;;;;;1.70;1.60;;;18.70;99.90;;;;;;4957318;28;20200;-91
2022/08/07 01:41:38;;;;;;;1.40;1.30;;;18.70;99.90;;;;;;4957517;28;20240;-91
2022/08/07 01:44:27;;;;;;;1.60;1.50;;;18.60;99.90;;;;;;4954798;28;20205;-92
2022/08/07 01:46:56;;;;;;;1.67;1.58;;;18.60;99.90;;;;;;4952772;28;20288;-92
2022/08/07 01:49:28;;;;;;;2.35;1.92;;;18.50;99.90;;;;;;4952580;28;20281;-91
2022/08/07 01:52:02;;;;;;;1.83;1.73;;;18.50;99.90;;;;;;4953293;28;20320;-92
2022/08/07 01:54:39;;;;;;;2.72;1.83;;;18.50;99.90;;;;;;4953212;28;20213;-92
2022/08/07 01:57:12;;;;;;;2.15;2.05;;;18.50;99.90;;;;;;4952863;28;20204;-91
2022/08/07 01:59:55;;;;;;;1.65;1.52;;;18.50;99.90;;;;;;4952771;28;20205;-92
2022/08/07 02:02:29;;;;;;;1.73;1.63;;;18.50;99.90;;;;;;4952742;28;20217;-91
2022/08/07 02:05:23;;;;;;;2.30;2.10;;;18.50;99.90;;;;;;4953024;28;20205;-91
2022/08/07 02:08:14;;;;;;;1.55;1.52;;;18.50;99.90;;;;;;4952628;28;20213;-92
2022/08/07 02:10:47;;;;;;;2.05;1.50;;;18.50;99.90;;;;;;4952546;28;20312;-91
2022/08/07 02:13:25;;;;;;;2.10;1.77;;;18.50;99.90;;;;;;4952780;28;20224;-92
2022/08/07 02:16:14;;;;;;;1.92;1.83;;;18.50;99.90;;;;;;4952472;28;20232;-92
2022/08/07 02:18:44;;;;;;;1.33;1.30;;;18.50;99.90;;;;;;4952095;28;20212;-91
2022/08/07 02:21:16;;;;;;;2.95;2.22;;;18.50;99.90;;;;;;4952301;28;20222;-91
2022/08/07 02:23:47;;;;;;;1.70;1.60;;;18.50;99.90;;;;;;4952492;28;20212;-92
2022/08/07 02:26:19;;;;;;;1.80;1.70;;;18.50;99.90;;;;;;4952379;28;20213;-93
2022/08/07 02:29:03;;;;;;;1.75;1.65;;;18.40;99.90;;;;;;4952019;28;20231;-92
2022/08/07 02:31:32;;;;;;;2.15;1.77;;;18.40;99.90;;;;;;4952178;29;20321;-91
2022/08/07 02:34:03;;;;;;;2.05;1.95;;;18.40;99.90;;;;;;4952379;28;20287;-92
2022/08/07 02:36:40;;;;;;;1.48;1.38;;;18.40;99.90;;;;;;4952117;28;20205;-91
2022/08/07 02:39:10;;;;;;;2.08;1.92;;;18.40;99.90;;;;;;4952181;28;20209;-91
2022/08/07 02:41:49;;;;;;;2.30;2.10;;;18.40;99.90;;;;;;4952219;28;20237;-91
2022/08/07 02:44:23;;;;;;;3.47;2.15;;;18.40;99.90;;;;;;4952019;28;20284;-92
2022/08/07 02:47:03;;;;;;;1.63;1.52;;;18.40;99.90;;;;;;4952340;28;20211;-92
2022/08/07 02:49:32;;;;;;;1.63;1.52;;;18.30;99.90;;;;;;4951874;28;20249;-91
2022/08/07 02:52:26;;;;;;;2.33;2.05;;;18.30;99.90;;;;;;4951899;28;20209;-91
2022/08/07 02:55:04;;;;;;;2.20;2.00;;;18.30;99.90;;;;;;4952795;28;20212;-92
2022/08/07 02:57:57;;;;;;;2.28;2.08;;;18.20;99.90;;;;;;4952136;28;20205;-91
2022/08/07 03:00:29;;;;;;;2.38;2.17;;;18.30;99.90;;;;;;4955196;28;20232;-92
2022/08/07 03:02:58;;;;;;;2.58;2.25;;;18.20;99.90;;;;;;4960044;28;20215;-91
2022/08/07 03:05:35;;;;;;;2.10;1.90;;;18.20;99.90;;;;;;4959962;28;20220;-91
2022/08/07 03:08:06;;;;;;;2.00;1.90;;;18.30;99.90;;;;;;4973437;28;20249;-92
2022/08/07 03:10:38;;;;;;;1.85;1.75;;;18.30;99.90;;;;;;4974586;28;20235;-92
2022/08/07 03:13:16;;;;;;;1.70;1.60;;;18.40;99.90;;;;;;4951945;28;20230;-92
2022/08/07 03:15:49;;;;;;;4.30;2.25;;;18.30;99.90;;;;;;4951799;28;20223;-92
2022/08/07 03:18:26;;;;;;;2.00;1.80;;;18.30;99.90;;;;;;4951544;28;20232;-91
2022/08/07 03:21:04;;;;;;;2.28;2.08;;;18.20;99.90;;;;;;4951279;28;20287;-92
2022/08/07 03:23:39;;;;;;;2.25;1.63;;;18.30;99.90;;;;;;4951508;28;20209;-92
2022/08/07 03:26:31;;;;;;;2.05;1.85;;;18.30;99.90;;;;;;4951832;28;20209;-90
2022/08/07 03:29:05;;;;;;;2.25;2.15;;;18.30;99.90;;;;;;4952851;28;20294;-91
2022/08/07 03:31:38;;;;;;;1.90;1.80;;;18.20;99.90;;;;;;4954449;28;20233;-90
2022/08/07 03:34:11;;;;;;;2.35;2.15;;;18.20;99.90;;;;;;4954993;28;20212;-92
2022/08/07 03:36:50;;;;;;;1.48;1.42;;;18.20;99.90;;;;;;4954849;28;20233;-91
2022/08/07 03:39:22;;;;;;;2.13;1.92;;;18.20;99.90;;;;;;4954591;28;20209;-91
2022/08/07 03:42:12;;;;;;;2.03;1.92;;;18.20;99.90;;;;;;4954705;28;20291;-91
2022/08/07 03:44:42;;;;;;;2.00;1.90;;;18.20;99.90;;;;;;4954443;28;20215;-92
2022/08/07 03:47:21;;;;;;;2.00;1.67;;;18.20;99.90;;;;;;4954785;28;20219;-91
2022/08/07 03:49:50;;;;;;;1.67;1.58;;;18.20;99.90;;;;;;4954285;28;20292;-91
2022/08/07 03:52:22;;;;;;;1.77;1.67;;;18.20;99.90;;;;;;4954853;28;20213;-91
2022/08/07 03:54:55;;;;;;;3.33;1.70;;;18.20;99.90;;;;;;4954646;28;20213;-92
2022/08/07 03:57:27;;;;;;;1.67;1.60;;;18.10;99.90;;;;;;4954600;28;20228;-91
2022/08/07 04:00:18;;;;;;;1.67;1.58;;;18.10;99.90;;;;;;4953960;28;20217;-92
2022/08/07 04:02:56;;;;;;;2.10;1.65;;;18.20;99.90;;;;;;4954539;28;20236;-92
2022/08/07 04:05:25;;;;;;;1.90;1.80;;;18.20;99.90;;;;;;4954567;28;20209;-91
2022/08/07 04:08:11;;;;;;;1.73;1.63;;;18.20;99.90;;;;;;4954775;28;20208;-92
2022/08/07 04:10:47;;;;;;;1.70;1.60;;;18.20;99.90;;;;;;4954603;28;20225;-91
2022/08/07 04:13:36;;;;;;;2.70;1.80;;;18.20;99.90;;;;;;4954482;28;20205;-92
2022/08/07 04:16:26;;;;;;;1.60;1.55;;;18.20;99.90;;;;;;4954735;28;20221;-91
2022/08/07 04:18:58;;;;;;;1.80;1.70;;;18.30;99.90;;;;;;4954226;28;20212;-91
2022/08/07 04:21:39;;;;;;;2.15;2.00;;;18.30;99.90;;;;;;4953988;28;20224;-92
2022/08/07 04:24:28;;;;;;;1.90;1.80;;;18.40;99.90;;;;;;4954212;28;20215;-92
2022/08/07 04:27:06;;;;;;;1.80;1.70;;;18.30;99.90;;;;;;4954023;28;20209;-91
2022/08/07 04:29:52;;;;;;;2.40;1.92;;;18.40;99.90;;;;;;4954103;28;20204;-92
2022/08/07 04:32:33;;;;;;;1.70;1.60;;;18.30;99.90;;;;;;4953963;28;20228;-91
2022/08/07 04:35:03;;;;;;;1.60;1.50;;;18.40;99.90;;;;;;4954641;28;20311;-92
2022/08/07 04:37:33;;;;;;;2.72;1.65;;;18.40;99.90;;;;;;4954462;28;20285;-92
2022/08/07 04:40:22;;;;;;;2.28;2.03;;;18.30;99.90;;;;;;4953422;28;20232;-91
2022/08/07 04:42:59;;;;;;;1.90;1.80;;;18.30;99.90;;;;;;4953967;28;20288;-91
2022/08/07 04:45:41;;;;;;;3.40;2.08;;;18.30;99.90;;;;;;4953991;28;20232;-92
2022/08/07 04:48:39;;;;;;;1.95;1.85;;;18.40;99.90;;;;;;4953566;28;20232;-90
2022/08/07 04:51:20;;;;;;;2.03;1.92;;;18.40;99.90;;;;;;4953334;28;20229;-90
2022/08/07 04:54:02;;;;;;;1.77;1.67;;;18.30;99.90;;;;;;4953486;28;20236;-91
2022/08/07 04:56:42;;;;;;;1.60;1.50;;;18.40;99.90;;;;;;4953484;28;20216;-91
2022/08/07 04:59:36;;;;;;;2.35;2.15;;;18.40;99.90;;;;;;4954164;28;20212;-91
2022/08/07 05:02:29;;;;;;;2.25;2.05;;;18.40;99.90;;;;;;4953939;28;20208;-91
2022/08/07 05:05:06;;;;;;;1.92;1.83;;;18.40;99.90;;;;;;4954491;28;20276;-92
2022/08/07 05:08:00;;;;;;;5.45;1.98;;;18.30;99.90;;;;;;4953099;28;20213;-91
2022/08/07 05:10:35;;;;;;;2.53;2.13;;;18.40;99.90;;;;;;4953078;28;20256;-92
2022/08/07 05:13:17;;;;;;;2.17;1.98;;;18.40;99.90;;;;;;4953449;28;20215;-91
2022/08/07 05:16:09;;;;;;;2.28;2.08;;;18.40;99.90;;;;;;4953379;28;20232;-92
2022/08/07 05:18:46;;;;;;;2.38;2.17;;;18.40;99.90;;;;;;4953104;28;20205;-92
2022/08/07 05:21:20;;;;;;;2.05;1.95;;;18.50;99.90;;;;;;4953243;28;20225;-92
2022/08/07 05:24:11;;;;;;;2.22;2.10;;;18.50;99.90;;;;;;4953141;28;20215;-92
2022/08/07 05:26:41;;;;;;;1.67;1.58;;;18.60;99.90;;;;;;4953240;28;20209;-91
2022/08/07 05:29:16;;;;;;;2.30;1.95;;;18.60;99.90;;;;;;4953143;28;20206;-91
2022/08/07 05:31:48;;;;;;;2.38;2.28;;;18.60;99.90;;;;;;4952874;28;20233;-92
2022/08/07 05:34:21;;;;;;;4.72;1.95;;;18.70;99.90;;;;;;4952715;28;20284;-91
2022/08/07 05:36:56;;;;;;;2.90;2.33;;;18.50;99.90;;;;;;4953089;28;20212;-91
2022/08/07 05:39:26;;;;;;;2.22;2.10;;;18.60;99.90;;;;;;4953188;28;20235;-91
2022/08/07 05:42:15;;;;;;;2.78;2.58;;;18.60;99.90;;;;;;4953279;28;20306;-91
2022/08/07 05:45:02;;;;;;;1.95;1.45;;;18.60;99.90;;;;;;4952974;28;20217;-91
2022/08/07 05:47:51;;;;;;;2.38;2.17;;;18.50;99.90;;;;;;4952849;28;20217;-93
2022/08/07 05:50:31;;;;;;;2.00;1.85;;;18.60;99.90;;;;;;4952433;28;20248;-92
2022/08/07 05:53:01;;;;;;;4.90;2.40;;;18.70;99.90;;;;;;4951456;28;20255;-93
2022/08/07 05:55:34;;;;;;;2.58;2.25;;;18.80;99.90;;;;;;4952824;28;20296;-91
2022/08/07 05:58:25;;;;;;;2.30;2.10;;;18.80;99.90;;;;;;4952256;28;20209;-91
2022/08/07 06:01:05;;;;;;;1.88;1.75;;;18.80;99.90;;;;;;4952430;28;20221;-91
2022/08/07 06:03:39;;;;;;;2.20;2.00;;;18.80;99.90;;;;;;4952554;28;20210;-92
2022/08/07 06:06:26;;;;;;;2.30;2.08;;;18.80;99.90;;;;;;4952820;28;20304;-92
2022/08/07 06:09:01;;;;;;;2.50;2.30;;;18.90;99.90;;;;;;4952356;28;20213;-93
2022/08/07 06:11:33;;;;;;;5.05;2.08;;;18.90;99.90;;;;;;4952366;29;20314;-91
2022/08/07 06:14:02;;;;;;;2.33;2.15;;;19.00;99.90;;;;;;4952253;28;20355;-92
2022/08/07 06:16:48;;;;;;;2.33;2.13;;;19.10;99.90;;;;;;4952198;28;20217;-93
2022/08/07 06:19:23;;;;;;;2.33;2.10;;;19.20;99.90;;;;;;4952270;28;20312;-92
2022/08/07 06:22:12;;;;;;;4.72;2.28;;;19.30;99.90;;;;;;4952249;28;20276;-91
2022/08/07 06:24:58;;;;;;;2.50;2.35;;;19.40;99.90;;;;;;4952435;28;20287;-91
2022/08/07 06:27:30;;;;;;;2.42;1.92;;;19.40;99.90;;;;;;4952231;28;20270;-92
2022/08/07 06:30:18;;;;;;;1.60;1.50;;;19.50;99.90;;;;;;4952315;28;20229;-92
2022/08/07 06:33:04;;;;;;;2.25;2.08;;;19.60;99.90;;;;;;4952206;28;20232;-92
2022/08/07 06:35:42;;;;;;;5.25;2.38;;;19.70;99.90;;;;;;4952493;29;20311;-92
2022/08/07 06:38:31;;;;;;;1.92;1.83;;;19.80;99.90;;;;;;4958030;29;20207;-92
2022/08/07 06:41:07;;;;;;;5.20;2.20;;;19.90;99.90;;;;;;4963732;28;20229;-92
2022/08/07 06:43:41;;;;;;;1.70;1.60;;;20.00;99.90;;;;;;4966444;28;20209;-92
2022/08/07 06:46:26;;;;;;;4.50;2.22;;;20.10;99.90;;;;;;4975702;28;20185;-91
2022/08/07 06:49:02;;;;;;;2.17;2.03;;;20.20;99.90;;;;;;4961381;28;20208;-92
2022/08/07 06:51:35;;;;;;;1.80;1.70;;;20.40;99.90;;;;;;4952199;28;20233;-92
2022/08/07 06:54:19;;;;;;;1.80;1.67;;;20.50;99.90;;;;;;4952185;28;20288;-92
2022/08/07 06:57:09;;;;;;;1.75;1.65;;;20.50;99.90;;;;;;4951668;29;20212;-93
2022/08/07 06:59:41;;;;;;;2.08;1.92;;;20.60;99.90;;;;;;4951653;28;20206;-93
2022/08/07 07:02:30;;;;;;;1.70;1.60;;;20.70;99.90;;;;;;4952329;28;20211;-92
2022/08/07 07:05:21;;;;;;;1.80;1.70;;;20.60;99.90;;;;;;4955144;28;20231;-93
2022/08/07 07:08:11;;;;;;;1.88;1.77;;;20.60;99.90;;;;;;4955682;28;20213;-91
2022/08/07 07:10:53;;;;;;;2.80;2.15;;;20.60;99.90;;;;;;4955266;28;20252;-92
2022/08/07 07:13:30;;;;;;;2.78;2.10;;;20.40;99.90;;;;;;4954891;28;20229;-91
2022/08/07 07:16:23;;;;;;;1.70;1.60;;;20.40;99.90;;;;;;4954698;28;20216;-91
2022/08/07 07:18:59;;;;;;;4.75;1.95;;;20.50;99.90;;;;;;4955267;28;20238;-92
2022/08/07 07:21:42;;;;;;;2.38;2.20;;;20.60;99.90;;;;;;4954890;28;20244;-92
2022/08/07 07:24:31;;;;;;;2.15;1.90;;;20.80;99.90;;;;;;4954737;28;20265;-92
2022/08/07 07:27:03;;;;;;;1.90;1.80;;;20.90;99.90;;;;;;4955056;28;20214;-93
2022/08/07 07:29:36;;;;;;;2.55;2.35;;;21.10;99.90;;;;;;4954878;28;20300;-93
2022/08/07 07:32:25;;;;;;;2.67;2.42;;;21.30;99.90;;;;;;4954605;28;20229;-94
2022/08/07 07:34:57;;;;;;;2.97;2.20;;;21.20;99.90;;;;;;4954994;28;20232;-92
2022/08/07 07:37:29;;;;;;;1.98;1.80;;;21.40;99.90;;;;;;4954943;28;20273;-93
2022/08/07 07:40:20;;;;;;;2.30;2.08;;;21.60;99.90;;;;;;4954371;28;20230;-92
2022/08/07 07:42:55;;;;;;;1.80;1.70;;;21.70;99.90;;;;;;4954725;28;20213;-92
2022/08/07 07:45:27;;;;;;;3.17;1.90;;;21.60;99.90;;;;;;4954744;28;20237;-92
2022/08/07 07:48:18;;;;;;;2.35;2.15;;;21.40;99.90;;;;;;4954696;28;20213;-93
2022/08/07 07:51:04;;;;;;;3.17;2.88;;;21.30;99.90;;;;;;4954726;28;20232;-92
2022/08/07 07:53:38;;;;;;;1.77;1.67;;;21.20;99.90;;;;;;4954571;28;20271;-92
2022/08/07 07:56:23;;;;;;;2.50;1.75;;;21.20;99.90;;;;;;4954574;28;20217;-92
2022/08/07 07:58:59;;;;;;;2.70;1.60;;;21.30;99.90;;;;;;4954373;28;20267;-92
2022/08/07 08:01:31;;;;;;;1.90;1.70;;;21.40;99.90;;;;;;4954564;28;20229;-92
2022/08/07 08:04:20;;;;;;;5.93;1.30;;;21.60;99.90;;;;;;4954835;28;20220;-92
2022/08/07 08:06:54;;;;;;;3.25;1.90;;;21.70;99.90;;;;;;4954551;28;20205;-92
2022/08/07 08:09:25;;;;;;;1.75;1.65;;;22.00;99.90;;;;;;4954219;28;20224;-92
2022/08/07 08:11:58;;;;;;;1.88;1.77;;;22.40;99.90;;;;;;4954286;28;20233;-92
2022/08/07 08:14:33;;;;;;;1.95;1.85;;;22.70;99.90;;;;;;4953986;28;20428;-92
2022/08/07 08:17:09;;;;;;;2.05;1.90;;;23.10;99.90;;;;;;4954070;28;20244;-92
2022/08/07 08:20:03;;;;;;;1.30;1.30;;;23.10;99.90;;;;;;4953857;28;20273;-92
2022/08/07 08:28:37;;;;;;;1.70;1.60;;;22.70;99.90;;;;;;4953901;28;20201;-91
2022/08/07 08:31:15;;;;;;;1.70;1.60;;;22.30;99.90;;;;;;4954687;28;20312;-93
2022/08/07 08:34:09;;;;;;;1.90;1.80;;;22.00;99.90;;;;;;4953877;28;20225;-93
2022/08/07 08:36:56;;;;;;;2.20;2.00;;;21.90;99.90;;;;;;4954692;28;20296;-91
2022/08/07 08:39:27;;;;;;;2.08;1.98;;;22.00;99.90;;;;;;4953994;28;20212;-93
2022/08/07 08:42:25;;;;;;;1.88;1.75;;;22.20;99.90;;;;;;4953981;28;20270;-93
2022/08/07 08:45:05;;;;;;;2.05;1.95;;;22.30;99.90;;;;;;4953886;28;20217;-93
2022/08/07 08:47:49;;;;;;;1.80;1.70;;;22.40;99.90;;;;;;4954063;28;20220;-92
2022/08/07 08:50:28;;;;;;;2.10;2.00;;;22.30;99.90;;;;;;4953306;28;20316;-91
2022/08/07 08:53:18;;;;;;;1.98;1.88;;;22.30;99.90;;;;;;4953713;28;20217;-92
2022/08/07 08:55:50;;;;;;;5.22;1.80;;;22.20;99.90;;;;;;4953413;28;20274;-93
2022/08/07 08:58:34;;;;;;;2.25;2.05;;;22.20;99.90;;;;;;4953788;28;20213;-92
2022/08/07 09:01:11;;;;;;;1.85;1.75;;;22.20;99.90;;;;;;4953497;28;20221;-92
2022/08/07 09:03:55;;;;;;;1.65;1.55;;;22.20;99.90;;;;;;4953704;28;20201;-93
2022/08/07 09:06:40;;;;;;;2.47;1.77;;;22.20;99.90;;;;;;4955349;28;20216;-90
2022/08/07 09:09:31;;;;;;;2.10;2.00;;;22.20;99.90;;;;;;4964910;28;20319;-93
2022/08/07 09:12:12;;;;;;;2.22;2.10;;;22.20;99.90;;;;;;4964603;28;20331;-91
2022/08/07 09:15:12;;;;;;;2.03;1.83;;;22.00;99.90;;;;;;4954564;28;20310;-90
2022/08/07 09:18:32;;;;;;;2.17;1.92;;;22.10;99.90;;;;;;4954121;28;20276;-91
2022/08/07 09:21:12;;;;;;;2.28;2.15;;;22.30;99.90;;;;;;4953290;28;20225;-92
2022/08/07 09:24:09;;;;;;;3.10;2.05;;;22.50;99.90;;;;;;4953102;28;20205;-92
2022/08/07 09:27:08;;;;;;;1.60;1.50;;;22.70;99.90;;;;;;4953159;28;20213;-93
2022/08/07 09:29:55;;;;;;;2.08;1.98;;;23.00;99.90;;;;;;4953159;28;20224;-93
2022/08/07 09:32:57;;;;;;;3.03;2.45;;;23.20;99.90;;;;;;4953001;28;20224;-92
2022/08/07 09:35:37;;;;;;;3.08;2.20;;;23.50;99.90;;;;;;4953238;28;20305;-91
2022/08/07 09:38:54;;;;;;;2.20;2.05;;;23.70;99.90;;;;;;5109166;27;1287607;-92
2022/08/07 09:41:35;;;;;;;3.80;2.40;;;23.80;99.90;;;;;;5116773;28;20224;-93
2022/08/07 09:44:40;;;;;;;2.40;2.13;;;24.00;99.90;;;;;;5110648;28;20296;-92
2022/08/07 09:47:36;;;;;;;2.65;2.45;;;24.00;99.90;;;;;;5110587;28;20259;-93
2022/08/07 09:50:36;;;;;;;2.92;2.30;;;24.20;99.90;;;;;;5110216;28;20219;-92
2022/08/07 09:53:10;;;;;;;1.75;1.65;;;24.40;99.90;;;;;;5110709;28;20252;-92
2022/08/07 09:55:59;;;;;;;1.80;1.70;;;24.50;99.90;;;;;;5115309;28;20207;-92
2022/08/07 09:59:09;;;;;;;5.75;1.98;;;24.60;99.90;;;;;;5110268;28;20235;-93
2022/08/07 10:01:58;;;;;;;3.20;2.42;;;24.90;99.90;;;;;;5110169;28;20310;-93
2022/08/07 10:04:39;;;;;;;4.75;1.95;;;25.80;99.90;;;;;;5110283;28;20210;-94
2022/08/07 10:07:33;;;;;;;1.50;1.40;;;26.60;99.90;;;;;;5110225;28;20204;-93
2022/08/07 10:10:30;;;;;;;3.22;2.40;;;27.60;98.40;;;;;;5110154;28;20223;-92
2022/08/07 10:13:36;;;;;;;3.50;1.60;;;28.50;96.80;;;;;;5110051;28;20231;-93
2022/08/07 10:16:39;;;;;;;5.13;1.85;;;29.20;95.40;;;;;;5121548;28;20200;-92
2022/08/07 10:19:40;;;;;;;2.22;2.13;;;29.60;93.50;;;;;;5122794;28;20196;-93
2022/08/07 10:22:38;;;;;;;2.05;1.80;;;29.60;93.20;;;;;;5105307;28;20187;-93
2022/08/07 10:25:21;;;;;;;2.42;2.25;;;29.70;91.40;;;;;;5134148;28;20211;-93
2022/08/07 10:28:12;;;;;;;8.50;1.67;;;29.20;91.30;;;;;;5110135;28;20249;-93
2022/08/07 10:30:56;;;;;;;2.00;1.90;;;29.30;90.70;;;;;;5109823;28;20224;-93
2022/08/07 10:33:54;;;;;;;1.60;1.50;;;29.30;91.50;;;;;;5109946;28;20204;-92
2022/08/07 10:36:54;;;;;;;2.13;1.92;;;29.20;90.40;;;;;;5109568;28;20295;-94
2022/08/07 10:39:37;;;;;;;1.75;1.65;;;28.70;90.50;;;;;;5109424;28;20208;-92
2022/08/07 10:42:32;;;;;;;2.40;1.70;;;28.40;90.50;;;;;;5109712;28;20200;-93
2022/08/07 10:45:15;;;;;;;1.70;1.60;;;28.20;91.40;;;;;;5109609;28;20291;-94
2022/08/07 10:47:58;;;;;;;4.18;3.83;;;28.30;90.30;;;;;;5108730;28;20208;-92
2022/08/07 10:50:41;;;;;;;2.15;1.98;;;28.40;91.10;;;;;;5095825;28;20224;-94
2022/08/07 10:53:26;;;;;;;1.83;1.73;;;28.50;90.50;;;;;;5095408;28;20200;-93
2022/08/07 10:56:15;;;;;;;2.47;2.10;;;28.60;90.40;;;;;;5096003;28;20283;-93
2022/08/07 10:59:07;;;;;;;2.47;1.80;;;28.40;90.80;;;;;;5095382;28;20224;-93
2022/08/07 11:01:41;;;;;;;1.63;1.52;;;28.50;90.70;;;;;;5095427;28;20254;-93
2022/08/07 11:04:56;;;;;;;2.25;1.70;;;28.50;90.20;;;;;;5095361;28;20236;-92
2022/08/07 11:07:37;;;;;;;1.77;1.67;;;28.30;90.00;;;;;;5097507;28;20201;-92
2022/08/07 11:10:29;;;;;;;1.75;1.65;;;28.20;90.70;;;;;;5094866;28;20228;-93
2022/08/07 11:13:09;;;;;;;2.13;1.92;;;28.20;90.40;;;;;;5095437;28;20294;-92
2022/08/07 11:16:04;;;;;;;1.27;1.27;;;28.00;90.20;;;;;;5095305;28;20295;-93
2022/08/07 11:18:38;;;;;;;2.08;1.52;;;27.90;89.60;;;;;;5095183;28;20220;-92
2022/08/07 11:21:15;;;;;;;2.13;1.90;;;27.60;89.70;;;;;;5095052;28;20229;-93
2022/08/07 11:23:54;;;;;;;2.30;2.10;;;27.20;90.50;;;;;;5095192;28;20210;-92
2022/08/07 11:26:31;;;;;;;2.22;2.00;;;27.00;91.10;;;;;;5095130;28;20239;-92
2022/08/07 11:29:06;;;;;;;1.58;1.50;;;26.90;91.20;;;;;;5095586;28;20200;-92
2022/08/07 11:32:04;;;;;;;2.00;1.80;;;27.00;90.90;;;;;;5095138;28;20318;-92
2022/08/07 11:34:42;;;;;;;2.33;2.08;;;26.90;90.40;;;;;;5094980;28;20208;-92
2022/08/07 11:37:23;;;;;;;2.00;1.90;;;26.70;91.30;;;;;;5094910;28;20212;-93
2022/08/07 11:40:24;;;;;;;3.30;1.95;;;26.70;90.90;;;;;;5094730;28;20254;-94
2022/08/07 11:43:03;;;;;;;2.08;1.70;;;26.50;91.30;;;;;;5094721;28;20208;-92
2022/08/07 11:45:45;;;;;;;1.67;1.48;;;26.60;91.50;;;;;;5095161;28;20231;-92
2022/08/07 11:48:53;;;;;;;1.63;1.52;;;26.60;91.00;;;;;;5094634;28;20211;-92
2022/08/07 11:51:53;;;;;;;1.45;1.35;;;26.50;90.80;;;;;;5094711;28;20220;-91
2022/08/07 11:54:53;;;;;;;1.20;1.20;;;26.30;90.80;;;;;;5094980;28;20204;-92
2022/08/07 11:57:33;;;;;;;1.63;1.52;;;26.10;91.20;;;;;;5095045;28;20278;-93
2022/08/07 12:00:31;;;;;;;1.65;1.55;;;26.10;91.20;;;;;;5093332;28;20248;-92
2022/08/07 12:03:34;;;;;;;1.45;1.35;;;26.00;90.90;;;;;;5094373;28;20210;-92
2022/08/07 12:06:28;;;;;;;1.70;1.60;;;25.90;91.50;;;;;;5094644;28;20215;-93
2022/08/07 12:09:13;;;;;;;1.70;1.60;;;25.90;90.90;;;;;;5094359;28;20259;-92
2022/08/07 12:11:57;;;;;;;1.17;1.17;;;25.90;90.90;;;;;;5094313;28;20315;-93
2022/08/07 12:14:51;;;;;;;2.40;2.20;;;25.90;91.20;;;;;;5094192;28;20211;-93
2022/08/07 12:17:38;;;;;;;1.40;1.30;;;25.90;90.50;;;;;;5094210;28;20254;-93
2022/08/07 12:20:27;;;;;;;1.75;1.65;;;25.80;90.60;;;;;;5093611;28;20236;-93
2022/08/07 12:23:19;;;;;;;3.00;2.10;;;25.70;91.10;;;;;;5094296;28;20204;-93
2022/08/07 12:26:09;;;;;;;1.55;1.45;;;25.70;91.50;;;;;;5094159;28;20261;-93
2022/08/07 12:29:05;;;;;;;1.73;1.52;;;25.60;91.40;;;;;;5094271;28;20203;-92
2022/08/07 12:31:40;;;;;;;1.85;1.73;;;25.60;91.30;;;;;;5093688;28;20224;-93
2022/08/07 12:34:33;;;;;;;2.63;1.67;;;25.50;91.40;;;;;;5093916;28;20208;-92
2022/08/07 12:37:02;;;;;;;1.40;1.30;;;25.50;91.40;;;;;;5094003;28;20239;-94
2022/08/07 12:39:46;;;;;;;1.88;1.77;;;25.50;91.00;;;;;;5093537;28;20287;-92
2022/08/07 12:42:22;;;;;;;1.98;1.88;;;25.40;91.00;;;;;;5093457;28;20263;-93
2022/08/07 12:45:00;;;;;;;2.03;1.92;;;25.40;91.30;;;;;;5093672;28;20214;-94
2022/08/07 12:47:41;;;;;;;1.23;1.23;;;25.40;91.80;;;;;;5093727;28;20208;-93
2022/08/07 12:50:29;;;;;;;1.88;1.73;;;25.60;91.50;;;;;;5093059;28;20277;-92
2022/08/07 12:53:13;;;;;;;2.38;1.60;;;25.70;91.60;;;;;;5093829;28;20212;-92
2022/08/07 12:55:56;;;;;;;2.25;2.05;;;25.80;91.20;;;;;;5093748;28;20215;-92
2022/08/07 12:58:37;;;;;;;4.13;1.80;;;25.90;91.10;;;;;;5094290;28;20289;-93
2022/08/07 13:01:19;;;;;;;4.00;1.92;;;26.20;91.20;;;;;;5094266;28;20317;-94
2022/08/07 13:04:13;;;;;;;1.65;1.55;;;26.50;90.60;;;;;;5093854;28;20207;-92
2022/08/07 13:07:35;;;;;;;2.65;2.38;;;27.00;90.20;;;;;;5093683;28;20295;-92
2022/08/07 13:10:32;;;;;;;1.67;1.58;;;27.50;90.10;;;;;;5097013;28;20224;-93
2022/08/07 13:13:32;;;;;;;1.92;1.83;;;27.90;89.30;;;;;;5093762;28;20208;-94
2022/08/07 13:16:28;;;;;;;2.13;1.92;;;28.20;87.40;;;;;;5093383;28;20203;-95
2022/08/07 13:19:08;;;;;;;1.70;1.60;;;28.50;86.60;;;;;;5093353;28;20231;-94
2022/08/07 13:21:54;;;;;;;1.60;1.50;;;28.60;86.40;;;;;;5093178;28;20289;-95
2022/08/07 13:24:40;;;;;;;1.67;1.58;;;28.50;84.80;;;;;;5093362;28;20215;-94
2022/08/07 13:27:27;;;;;;;2.05;1.95;;;28.20;86.10;;;;;;5093126;28;20268;-93
2022/08/07 13:30:17;;;;;;;1.40;1.17;;;28.20;85.40;;;;;;5092502;28;20216;-94
2022/08/07 13:32:53;;;;;;;2.45;1.88;;;28.20;85.90;;;;;;5093358;28;20203;-94
2022/08/07 13:35:29;;;;;;;2.20;1.80;;;28.20;86.00;;;;;;5093084;28;20261;-93
2022/08/07 13:38:21;;;;;;;2.45;1.80;;;28.10;86.80;;;;;;5092527;28;20208;-93
2022/08/07 13:41:04;;;;;;;1.80;1.70;;;28.20;88.60;;;;;;5092513;28;20247;-93
2022/08/07 13:43:42;;;;;;;2.08;1.98;;;28.30;87.10;;;;;;5092859;28;20204;-94
2022/08/07 13:46:21;;;;;;;2.25;1.85;;;28.50;85.80;;;;;;5092954;28;20227;-93
2022/08/07 13:49:04;;;;;;;2.25;2.05;;;28.40;85.60;;;;;;5092641;28;20207;-93
2022/08/07 13:51:53;;;;;;;2.10;1.92;;;28.30;85.50;;;;;;5093172;28;20228;-93
2022/08/07 13:54:43;;;;;;;1.95;1.45;;;28.30;85.30;;;;;;5097532;28;20208;-93
2022/08/07 13:57:18;;;;;;;2.97;2.25;;;28.30;82.90;;;;;;5104268;28;20207;-93
2022/08/07 13:59:54;;;;;;;3.72;1.85;;;28.20;84.90;;;;;;5103468;28;20219;-93
2022/08/07 14:02:26;;;;;;;1.65;1.55;;;28.30;83.70;;;;;;5114720;28;20197;-93
2022/08/07 14:05:04;;;;;;;1.63;1.52;;;28.30;82.50;;;;;;5115943;28;20204;-93
2022/08/07 14:07:40;;;;;;;1.70;1.60;;;28.40;83.50;;;;;;5092927;28;20283;-93
2022/08/07 14:10:34;;;;;;;2.05;1.92;;;28.60;83.70;;;;;;5092810;28;20217;-94